PRIVATE WETTERSTATION BILLIGHEIM-ALLFELD                       ZURCK
Wetterdaten: Sonntag, 27.03.2022
Datum Zeit Temp. A. Temp. A. min Temp. A. max Feuchte A. Luftdruck Regen Wind Richtung Richtung Sonnenschein ET Solar Taupunkt Windchill Windben Empfang
27.03.2022 00:00 6,9 C 6,8 C 7,0 C 68 % 1028,1 hPa 0,0 l/m 1,6 km/h (1 Bft) NO 45 0 min 0,025 mm 0 W/m 1,4 C 6,9 C 4,8 km/h (1 Bft) 100 %
27.03.2022 00:10 7,3 C 6,9 C 7,3 C 67 % 1028,1 hPa 0,0 l/m 0,0 km/h (0 Bft) NO 45 0 min 0,000 mm 0 W/m 1,6 C 7,3 C 4,8 km/h (1 Bft) 99 %
27.03.2022 00:20 7,7 C 7,3 C 7,7 C 66 % 1028,2 hPa 0,0 l/m 1,6 km/h (1 Bft) NO 45 0 min 0,000 mm 0 W/m 1,8 C 7,7 C 4,8 km/h (1 Bft) 100 %
27.03.2022 00:30 8,1 C 7,7 C 8,1 C 65 % 1028,2 hPa 0,0 l/m 3,2 km/h (1 Bft) NO 45 0 min 0,000 mm 0 W/m 1,9 C 8,1 C 4,8 km/h (1 Bft) 99 %
27.03.2022 00:40 8,3 C 8,1 C 8,3 C 65 % 1028,2 hPa 0,0 l/m 1,6 km/h (1 Bft) NO 45 0 min 0,000 mm 0 W/m 2,1 C 8,3 C 6,4 km/h (2 Bft) 100 %
27.03.2022 00:50 8,4 C 8,3 C 8,4 C 64 % 1028,1 hPa 0,0 l/m 1,6 km/h (1 Bft) NO 45 0 min 0,000 mm 0 W/m 2,0 C 8,4 C 6,4 km/h (2 Bft) 90 %
27.03.2022 01:00 8,3 C 8,3 C 8,4 C 65 % 1028,0 hPa 0,0 l/m 3,2 km/h (1 Bft) NO 45 0 min 0,025 mm 0 W/m 2,1 C 8,3 C 6,4 km/h (2 Bft) 100 %
27.03.2022 01:10 8,6 C 8,3 C 8,6 C 64 % 1028,0 hPa 0,0 l/m 3,2 km/h (1 Bft) NO 45 0 min 0,000 mm 0 W/m 2,2 C 8,6 C 6,4 km/h (2 Bft) 100 %
27.03.2022 01:20 9,2 C 8,6 C 9,2 C 62 % 1028,1 hPa 0,0 l/m 3,2 km/h (1 Bft) NO 45 0 min 0,000 mm 0 W/m 2,3 C 9,2 C 6,4 km/h (2 Bft) 100 %
27.03.2022 01:30 9,3 C 9,2 C 9,3 C 62 % 1028,1 hPa 0,0 l/m 1,6 km/h (1 Bft) NO 45 0 min 0,000 mm 0 W/m 2,4 C 9,3 C 4,8 km/h (1 Bft) 100 %
27.03.2022 01:40 9,0 C 9,0 C 9,3 C 62 % 1028,1 hPa 0,0 l/m 1,6 km/h (1 Bft) NO 45 0 min 0,000 mm 0 W/m 2,1 C 9,0 C 6,4 km/h (2 Bft) 99 %
27.03.2022 01:50 8,9 C 8,9 C 9,0 C 62 % 1028,1 hPa 0,0 l/m 1,6 km/h (1 Bft) N-NO 22 0 min 0,000 mm 0 W/m 2,0 C 8,9 C 6,4 km/h (2 Bft) 98 %
27.03.2022 03:00 9,1 C 9,0 C 9,1 C 62 % 1028,2 hPa 0,0 l/m 3,2 km/h (1 Bft) N-NO 22 0 min 0,025 mm 0 W/m 2,2 C 9,1 C 8,0 km/h (2 Bft) 97 %
27.03.2022 03:10 8,7 C 8,7 C 9,1 C 64 % 1028,2 hPa 0,0 l/m 1,6 km/h (1 Bft) N-NO 22 0 min 0,000 mm 0 W/m 2,3 C 8,7 C 4,8 km/h (1 Bft) 97 %
27.03.2022 03:20 8,2 C 8,2 C 8,7 C 65 % 1028,1 hPa 0,0 l/m 4,8 km/h (1 Bft) N-NO 22 0 min 0,000 mm 0 W/m 2,0 C 8,2 C 6,4 km/h (2 Bft) 98 %
27.03.2022 03:30 7,8 C 7,8 C 8,2 C 66 % 1027,9 hPa 0,0 l/m 1,6 km/h (1 Bft) N-NO 22 0 min 0,000 mm 0 W/m 1,9 C 7,8 C 4,8 km/h (1 Bft) 97 %
27.03.2022 03:40 7,6 C 7,6 C 7,8 C 67 % 1027,9 hPa 0,0 l/m 1,6 km/h (1 Bft) N-NO 22 0 min 0,000 mm 0 W/m 1,9 C 7,6 C 4,8 km/h (1 Bft) 98 %
27.03.2022 03:50 7,6 C 7,6 C 7,6 C 67 % 1027,8 hPa 0,0 l/m 1,6 km/h (1 Bft) N-NO 22 0 min 0,000 mm 0 W/m 1,9 C 7,6 C 6,4 km/h (2 Bft) 98 %
27.03.2022 04:00 7,5 C 7,5 C 7,6 C 68 % 1027,8 hPa 0,0 l/m 3,2 km/h (1 Bft) N-NO 22 0 min 0,025 mm 0 W/m 2,0 C 7,5 C 4,8 km/h (1 Bft) 97 %
27.03.2022 04:10 7,3 C 7,3 C 7,5 C 68 % 1027,9 hPa 0,0 l/m 3,2 km/h (1 Bft) N-NO 22 0 min 0,000 mm 0 W/m 1,8 C 7,3 C 4,8 km/h (1 Bft) 98 %
27.03.2022 04:20 7,2 C 7,2 C 7,3 C 69 % 1027,9 hPa 0,0 l/m 1,6 km/h (1 Bft) N-NO 22 0 min 0,000 mm 0 W/m 1,9 C 7,2 C 4,8 km/h (1 Bft) 97 %
27.03.2022 04:30 7,3 C 7,2 C 7,3 C 69 % 1027,9 hPa 0,0 l/m 0,0 km/h (0 Bft) N 0 0 min 0,000 mm 0 W/m 2,0 C 7,3 C 0,0 km/h (0 Bft) 98 %
27.03.2022 04:40 7,3 C 7,3 C 7,3 C 69 % 1027,9 hPa 0,0 l/m 3,2 km/h (1 Bft) N-NO 22 0 min 0,000 mm 0 W/m 2,0 C 7,3 C 6,4 km/h (2 Bft) 98 %
27.03.2022 04:50 6,9 C 6,9 C 7,3 C 70 % 1027,8 hPa 0,0 l/m 3,2 km/h (1 Bft) N-NO 22 0 min 0,000 mm 0 W/m 1,8 C 6,9 C 4,8 km/h (1 Bft) 97 %
27.03.2022 05:00 6,7 C 6,7 C 6,9 C 71 % 1027,7 hPa 0,0 l/m 1,6 km/h (1 Bft) N-NO 22 0 min 0,025 mm 0 W/m 1,8 C 6,7 C 4,8 km/h (1 Bft) 97 %
27.03.2022 05:10 6,7 C 6,6 C 6,7 C 71 % 1027,7 hPa 0,0 l/m 3,2 km/h (1 Bft) N-NO 22 0 min 0,000 mm 0 W/m 1,8 C 6,7 C 4,8 km/h (1 Bft) 98 %
27.03.2022 05:20 6,7 C 6,7 C 6,7 C 71 % 1027,7 hPa 0,0 l/m 0,0 km/h (0 Bft) N-NO 22 0 min 0,000 mm 0 W/m 1,8 C 6,7 C 1,6 km/h (1 Bft) 98 %
27.03.2022 05:30 6,7 C 6,7 C 6,7 C 72 % 1027,8 hPa 0,0 l/m 0,0 km/h (0 Bft) N-NO 22 0 min 0,000 mm 0 W/m 2,0 C 6,7 C 6,4 km/h (2 Bft) 98 %
27.03.2022 05:40 6,5 C 6,5 C 6,7 C 73 % 1027,8 hPa 0,0 l/m 3,2 km/h (1 Bft) N-NO 22 0 min 0,000 mm 0 W/m 2,0 C 6,5 C 4,8 km/h (1 Bft) 98 %
27.03.2022 05:50 6,3 C 6,3 C 6,4 C 74 % 1027,8 hPa 0,0 l/m 3,2 km/h (1 Bft) N-NO 22 0 min 0,000 mm 0 W/m 2,0 C 6,3 C 4,8 km/h (1 Bft) 98 %
27.03.2022 06:00 6,2 C 6,2 C 6,3 C 75 % 1027,8 hPa 0,0 l/m 1,6 km/h (1 Bft) N-NO 22 0 min 0,025 mm 0 W/m 2,1 C 6,2 C 4,8 km/h (1 Bft) 97 %
27.03.2022 06:10 6,1 C 6,1 C 6,2 C 76 % 1027,7 hPa 0,0 l/m 3,2 km/h (1 Bft) N-NO 22 0 min 0,000 mm 0 W/m 2,2 C 6,1 C 4,8 km/h (1 Bft) 97 %
27.03.2022 06:20 6,2 C 6,1 C 6,2 C 76 % 1027,7 hPa 0,0 l/m 3,2 km/h (1 Bft) N-NO 22 0 min 0,000 mm 0 W/m 2,3 C 6,2 C 6,4 km/h (2 Bft) 97 %
27.03.2022 06:30 6,1 C 6,1 C 6,2 C 76 % 1027,7 hPa 0,0 l/m 3,2 km/h (1 Bft) N-NO 22 0 min 0,000 mm 0 W/m 2,2 C 6,1 C 4,8 km/h (1 Bft) 98 %
27.03.2022 06:40 6,1 C 6,1 C 6,1 C 76 % 1027,7 hPa 0,0 l/m 3,2 km/h (1 Bft) N-NO 22 0 min 0,000 mm 0 W/m 2,2 C 6,1 C 6,4 km/h (2 Bft) 97 %
27.03.2022 06:50 6,1 C 6,1 C 6,1 C 77 % 1027,8 hPa 0,0 l/m 3,2 km/h (1 Bft) N-NO 22 0 min 0,000 mm 0 W/m 2,4 C 6,1 C 6,4 km/h (2 Bft) 98 %
27.03.2022 07:00 5,9 C 5,9 C 6,1 C 77 % 1027,8 hPa 0,0 l/m 4,8 km/h (1 Bft) N-NO 22 0 min 0,000 mm 0 W/m 2,2 C 5,9 C 6,4 km/h (2 Bft) 99 %
27.03.2022 07:10 5,9 C 5,9 C 5,9 C 78 % 1027,8 hPa 0,0 l/m 4,8 km/h (1 Bft) NO 45 0 min 0,000 mm 0 W/m 2,4 C 5,9 C 6,4 km/h (2 Bft) 100 %
27.03.2022 07:20 6,1 C 5,9 C 6,1 C 77 % 1027,9 hPa 0,0 l/m 4,8 km/h (1 Bft) NO 45 0 min 0,000 mm 7 W/m 2,4 C 6,1 C 8,0 km/h (2 Bft) 98 %
27.03.2022 07:30 5,9 C 5,9 C 6,1 C 78 % 1027,8 hPa 0,0 l/m 4,8 km/h (1 Bft) NO 45 0 min 0,000 mm 12 W/m 2,4 C 5,9 C 8,0 km/h (2 Bft) 100 %
27.03.2022 07:40 6,1 C 5,9 C 6,1 C 78 % 1027,9 hPa 0,0 l/m 4,8 km/h (1 Bft) NO 45 0 min 0,000 mm 16 W/m 2,6 C 6,1 C 8,0 km/h (2 Bft) 100 %
27.03.2022 07:50 6,2 C 6,1 C 6,2 C 78 % 1027,9 hPa 0,0 l/m 4,8 km/h (1 Bft) NO 45 0 min 0,000 mm 19 W/m 2,7 C 6,2 C 8,0 km/h (2 Bft) 100 %
27.03.2022 08:00 6,4 C 6,2 C 6,4 C 78 % 1028,0 hPa 0,0 l/m 4,8 km/h (1 Bft) NO 45 0 min 0,025 mm 26 W/m 2,8 C 6,4 C 8,0 km/h (2 Bft) 100 %
27.03.2022 08:10 6,4 C 6,4 C 6,4 C 78 % 1028,0 hPa 0,0 l/m 4,8 km/h (1 Bft) NO 45 0 min 0,000 mm 39 W/m 2,8 C 6,4 C 6,4 km/h (2 Bft) 100 %
27.03.2022 08:20 6,6 C 6,4 C 6,6 C 78 % 1028,1 hPa 0,0 l/m 4,8 km/h (1 Bft) NO 45 0 min 0,000 mm 42 W/m 3,0 C 6,6 C 6,4 km/h (2 Bft) 100 %
27.03.2022 08:30 6,8 C 6,6 C 6,8 C 78 % 1028,1 hPa 0,0 l/m 4,8 km/h (1 Bft) NO 45 0 min 0,000 mm 42 W/m 3,2 C 6,8 C 8,0 km/h (2 Bft) 99 %
27.03.2022 08:40 7,2 C 6,8 C 7,2 C 77 % 1028,2 hPa 0,0 l/m 4,8 km/h (1 Bft) NO 45 10 min 0,000 mm 185 W/m 3,4 C 7,2 C 8,0 km/h (2 Bft) 89 %
27.03.2022 08:50 7,7 C 7,2 C 7,7 C 76 % 1028,3 hPa 0,0 l/m 4,8 km/h (1 Bft) NO 45 10 min 0,000 mm 209 W/m 3,7 C 7,7 C 8,0 km/h (2 Bft) 99 %
27.03.2022 09:00 8,3 C 7,8 C 8,3 C 75 % 1028,3 hPa 0,0 l/m 3,2 km/h (1 Bft) NO 45 10 min 0,051 mm 236 W/m 4,1 C 8,3 C 6,4 km/h (2 Bft) 100 %
27.03.2022 09:10 8,8 C 8,3 C 8,8 C 74 % 1028,3 hPa 0,0 l/m 3,2 km/h (1 Bft) NO 45 10 min 0,000 mm 260 W/m 4,4 C 8,8 C 8,0 km/h (2 Bft) 100 %
27.03.2022 09:20 9,3 C 8,8 C 9,3 C 72 % 1028,3 hPa 0,0 l/m 4,8 km/h (1 Bft) NO 45 10 min 0,000 mm 287 W/m 4,5 C 9,3 C 8,0 km/h (2 Bft) 100 %
27.03.2022 09:30 9,7 C 9,3 C 9,7 C 71 % 1028,3 hPa 0,0 l/m 4,8 km/h (1 Bft) NO 45 10 min 0,000 mm 309 W/m 4,7 C 9,7 C 9,7 km/h (2 Bft) 100 %
27.03.2022 09:40 10,0 C 9,7 C 10,0 C 71 % 1028,3 hPa 0,0 l/m 3,2 km/h (1 Bft) NO 45 10 min 0,000 mm 334 W/m 5,0 C 10,0 C 8,0 km/h (2 Bft) 99 %
27.03.2022 09:50 10,4 C 10,0 C 10,4 C 69 % 1028,4 hPa 0,0 l/m 3,2 km/h (1 Bft) NO 45 10 min 0,000 mm 359 W/m 5,0 C 10,4 C 8,0 km/h (2 Bft) 99 %
27.03.2022 10:00 10,8 C 10,4 C 10,8 C 68 % 1028,3 hPa 0,0 l/m 1,6 km/h (1 Bft) NO 45 10 min 0,152 mm 380 W/m 5,1 C 10,8 C 6,4 km/h (2 Bft) 100 %
27.03.2022 10:10 11,3 C 10,9 C 11,3 C 67 % 1028,4 hPa 0,0 l/m 1,6 km/h (1 Bft) NO 45 10 min 0,000 mm 403 W/m 5,4 C 11,3 C 8,0 km/h (2 Bft) 100 %
27.03.2022 10:20 11,9 C 11,3 C 11,9 C 65 % 1028,4 hPa 0,0 l/m 1,6 km/h (1 Bft) NO 45 10 min 0,000 mm 424 W/m 5,5 C 11,9 C 6,4 km/h (2 Bft) 100 %
27.03.2022 10:30 12,6 C 11,9 C 12,6 C 64 % 1028,3 hPa 0,0 l/m 3,2 km/h (1 Bft) NO 45 10 min 0,000 mm 446 W/m 6,0 C 12,6 C 9,7 km/h (2 Bft) 100 %
27.03.2022 10:40 12,8 C 12,6 C 12,8 C 63 % 1028,3 hPa 0,0 l/m 3,2 km/h (1 Bft) NO 45 10 min 0,000 mm 466 W/m 5,9 C 12,8 C 9,7 km/h (2 Bft) 100 %
27.03.2022 10:50 13,2 C 12,8 C 13,2 C 64 % 1028,3 hPa 0,0 l/m 3,2 km/h (1 Bft) NO 45 10 min 0,000 mm 485 W/m 6,5 C 13,2 C 11,3 km/h (2 Bft) 100 %
27.03.2022 11:00 13,6 C 13,2 C 13,6 C 62 % 1028,3 hPa 0,0 l/m 1,6 km/h (1 Bft) NO 45 10 min 0,229 mm 504 W/m 6,5 C 13,6 C 6,4 km/h (2 Bft) 100 %
27.03.2022 11:10 14,2 C 13,6 C 14,2 C 60 % 1028,3 hPa 0,0 l/m 1,6 km/h (1 Bft) N-NO 22 10 min 0,000 mm 520 W/m 6,5 C 14,2 C 9,7 km/h (2 Bft) 100 %
27.03.2022 11:20 14,6 C 14,2 C 14,6 C 59 % 1028,3 hPa 0,0 l/m 3,2 km/h (1 Bft) N-NO 22 10 min 0,000 mm 536 W/m 6,7 C 14,6 C 8,0 km/h (2 Bft) 99 %
27.03.2022 11:30 15,1 C 14,6 C 15,1 C 59 % 1028,2 hPa 0,0 l/m 1,6 km/h (1 Bft) N-NO 22 10 min 0,000 mm 550 W/m 7,1 C 15,1 C 8,0 km/h (2 Bft) 100 %
27.03.2022 11:40 15,2 C 15,1 C 15,2 C 55 % 1028,2 hPa 0,0 l/m 1,6 km/h (1 Bft) O 90 10 min 0,000 mm 561 W/m 6,2 C 15,2 C 11,3 km/h (2 Bft) 99 %
27.03.2022 11:50 15,7 C 15,2 C 15,7 C 54 % 1028,2 hPa 0,0 l/m 0,0 km/h (0 Bft) O-NO 67 10 min 0,000 mm 578 W/m 6,4 C 15,7 C 8,0 km/h (2 Bft) 99 %
27.03.2022 12:10 16,3 C 15,2 C 16,3 C 50 % 1028,0 hPa 0,0 l/m 0,4 km/h (0 Bft) O-NO 74 20 min 0,282 mm 603 W/m 5,9 C 16,3 C 9,7 km/h (2 Bft) 98 %
27.03.2022 12:20 16,4 C 16,3 C 16,5 C 51 % 1028,0 hPa 0,0 l/m 1,1 km/h (1 Bft) SO 130 10 min 0,000 mm 610 W/m 6,2 C 16,4 C 14,5 km/h (3 Bft) 97 %
27.03.2022 12:30 16,7 C 16,4 C 16,7 C 50 % 1028,0 hPa 0,0 l/m 1,0 km/h (0 Bft) SO 133 10 min 0,000 mm 621 W/m 6,2 C 16,7 C 11,3 km/h (2 Bft) 98 %
27.03.2022 12:40 17,1 C 16,7 C 17,1 C 49 % 1027,8 hPa 0,0 l/m 0,5 km/h (0 Bft) SO 135 10 min 0,000 mm 626 W/m 6,3 C 17,1 C 14,5 km/h (3 Bft) 96 %
27.03.2022 12:50 17,1 C 17,1 C 17,2 C 45 % 1027,8 hPa 0,0 l/m 4,0 km/h (1 Bft) SO 132 10 min 0,000 mm 633 W/m 5,1 C 17,1 C 17,7 km/h (3 Bft) 98 %
27.03.2022 13:00 17,2 C 17,1 C 17,2 C 45 % 1027,6 hPa 0,0 l/m 0,8 km/h (0 Bft) O-SO 122 10 min 0,356 mm 640 W/m 5,2 C 17,2 C 14,5 km/h (3 Bft) 97 %
27.03.2022 13:10 17,5 C 17,2 C 17,5 C 45 % 1027,6 hPa 0,0 l/m 0,4 km/h (0 Bft) SO 126 10 min 0,000 mm 642 W/m 5,4 C 17,5 C 11,3 km/h (2 Bft) 97 %
27.03.2022 13:20 17,6 C 17,5 C 17,6 C 47 % 1027,5 hPa 0,0 l/m 0,7 km/h (0 Bft) O 82 10 min 0,000 mm 642 W/m 6,2 C 17,6 C 16,1 km/h (3 Bft) 98 %
27.03.2022 13:30 18,1 C 17,6 C 18,1 C 46 % 1027,4 hPa 0,0 l/m 0,1 km/h (0 Bft) N 5 10 min 0,000 mm 642 W/m 6,3 C 18,1 C 4,8 km/h (1 Bft) 97 %
27.03.2022 13:40 18,2 C 18,1 C 18,2 C 46 % 1027,4 hPa 0,0 l/m 1,4 km/h (1 Bft) O 98 10 min 0,000 mm 636 W/m 6,4 C 18,2 C 19,3 km/h (3 Bft) 98 %
27.03.2022 13:50 18,1 C 18,1 C 18,2 C 45 % 1027,3 hPa 0,0 l/m 0,7 km/h (0 Bft) O 100 10 min 0,000 mm 636 W/m 6,0 C 18,1 C 9,7 km/h (2 Bft) 97 %
27.03.2022 14:00 18,3 C 18,1 C 18,3 C 45 % 1027,1 hPa 0,0 l/m 1,0 km/h (0 Bft) O 88 10 min 0,355 mm 636 W/m 6,2 C 18,3 C 14,5 km/h (3 Bft) 97 %
27.03.2022 14:10 18,3 C 18,2 C 18,3 C 45 % 1026,9 hPa 0,0 l/m 1,6 km/h (1 Bft) O 86 10 min 0,000 mm 629 W/m 6,2 C 18,3 C 17,7 km/h (3 Bft) 98 %
27.03.2022 14:20 18,6 C 18,3 C 18,6 C 44 % 1026,9 hPa 0,0 l/m 0,8 km/h (0 Bft) O-SO 121 10 min 0,000 mm 619 W/m 6,1 C 18,6 C 14,5 km/h (3 Bft) 97 %
27.03.2022 14:30 18,9 C 18,6 C 18,9 C 45 % 1026,8 hPa 0,0 l/m 0,0 km/h (0 Bft) O-SO 105 10 min 0,000 mm 615 W/m 6,7 C 18,9 C 1,6 km/h (1 Bft) 97 %
27.03.2022 14:40 19,1 C 18,9 C 19,1 C 46 % 1026,8 hPa 0,0 l/m 0,0 km/h (0 Bft) N-NO 33 10 min 0,000 mm 605 W/m 7,2 C 19,1 C 1,6 km/h (1 Bft) 97 %
27.03.2022 14:50 19,6 C 19,1 C 19,6 C 42 % 1026,6 hPa 0,0 l/m 0,1 km/h (0 Bft) N 360 10 min 0,000 mm 592 W/m 6,3 C 19,6 C 3,2 km/h (1 Bft) 98 %
27.03.2022 15:00 19,6 C 19,6 C 19,7 C 41 % 1026,6 hPa 0,0 l/m 0,5 km/h (0 Bft) O-SO 115 10 min 0,356 mm 584 W/m 6,0 C 19,6 C 8,0 km/h (2 Bft) 97 %
27.03.2022 15:10 19,9 C 19,6 C 19,9 C 42 % 1026,4 hPa 0,0 l/m 0,0 km/h (0 Bft) NO 35 10 min 0,000 mm 568 W/m 6,6 C 19,9 C 1,6 km/h (1 Bft) 97 %
27.03.2022 15:20 19,9 C 19,8 C 19,9 C 43 % 1026,4 hPa 0,0 l/m 0,2 km/h (0 Bft) O-NO 63 10 min 0,000 mm 550 W/m 6,9 C 19,9 C 6,4 km/h (2 Bft) 98 %
27.03.2022 15:30 19,9 C 19,8 C 19,9 C 41 % 1026,3 hPa 0,0 l/m 3,2 km/h (1 Bft) O 93 10 min 0,000 mm 534 W/m 6,3 C 19,9 C 14,5 km/h (3 Bft) 97 %
27.03.2022 15:40 19,9 C 19,8 C 19,9 C 45 % 1026,2 hPa 0,0 l/m 0,5 km/h (0 Bft) N-NW 327 10 min 0,000 mm 519 W/m 7,6 C 19,9 C 8,0 km/h (2 Bft) 98 %
27.03.2022 15:50 20,4 C 19,9 C 20,4 C 44 % 1026,1 hPa 0,0 l/m 0,2 km/h (0 Bft) N-NO 25 10 min 0,000 mm 499 W/m 7,7 C 20,4 C 6,4 km/h (2 Bft) 97 %
27.03.2022 16:00 19,9 C 19,9 C 20,5 C 44 % 1026,0 hPa 0,0 l/m 3,8 km/h (1 Bft) O-SO 119 10 min 0,330 mm 483 W/m 7,3 C 19,9 C 24,1 km/h (4 Bft) 98 %
27.03.2022 16:10 19,9 C 19,7 C 19,9 C 45 % 1025,7 hPa 0,0 l/m 0,3 km/h (0 Bft) NW 326 10 min 0,000 mm 468 W/m 7,6 C 19,9 C 6,4 km/h (2 Bft) 97 %
27.03.2022 16:20 20,0 C 19,9 C 20,1 C 43 % 1025,7 hPa 0,0 l/m 0,9 km/h (0 Bft) O-SO 115 10 min 0,000 mm 445 W/m 7,0 C 20,0 C 11,3 km/h (2 Bft) 97 %
27.03.2022 16:30 20,1 C 19,7 C 20,1 C 44 % 1025,5 hPa 0,0 l/m 0,2 km/h (0 Bft) O-SO 112 10 min 0,000 mm 431 W/m 7,5 C 20,1 C 6,4 km/h (2 Bft) 98 %
27.03.2022 16:40 20,2 C 20,1 C 20,2 C 43 % 1025,5 hPa 0,0 l/m 0,2 km/h (0 Bft) O 96 10 min 0,000 mm 410 W/m 7,2 C 20,2 C 6,4 km/h (2 Bft) 97 %
27.03.2022 16:50 20,4 C 20,2 C 20,4 C 43 % 1025,5 hPa 0,0 l/m 0,6 km/h (0 Bft) O-NO 69 10 min 0,000 mm 385 W/m 7,4 C 20,4 C 8,0 km/h (2 Bft) 97 %
27.03.2022 17:00 20,6 C 20,4 C 20,6 C 44 % 1025,4 hPa 0,0 l/m 0,2 km/h (0 Bft) N-NO 17 10 min 0,254 mm 362 W/m 7,9 C 20,6 C 4,8 km/h (1 Bft) 98 %
27.03.2022 17:10 20,4 C 20,4 C 20,7 C 44 % 1025,4 hPa 0,0 l/m 0,3 km/h (0 Bft) NO 49 10 min 0,000 mm 341 W/m 7,7 C 20,4 C 6,4 km/h (2 Bft) 98 %
27.03.2022 17:20 20,3 C 20,3 C 20,4 C 45 % 1025,2 hPa 0,0 l/m 0,0 km/h (0 Bft) O-NO 66 10 min 0,000 mm 309 W/m 8,0 C 20,3 C 1,6 km/h (1 Bft) 98 %
27.03.2022 17:30 20,0 C 20,0 C 20,3 C 45 % 1025,2 hPa 0,0 l/m 0,1 km/h (0 Bft) NO 56 10 min 0,000 mm 290 W/m 7,7 C 20,0 C 3,2 km/h (1 Bft) 99 %
27.03.2022 17:40 19,9 C 19,8 C 20,0 C 45 % 1025,1 hPa 0,0 l/m 0,2 km/h (0 Bft) N 5 10 min 0,000 mm 269 W/m 7,6 C 19,9 C 4,8 km/h (1 Bft) 100 %
27.03.2022 17:50 19,8 C 19,8 C 20,0 C 46 % 1025,1 hPa 0,0 l/m 0,1 km/h (0 Bft) N-NO 33 10 min 0,000 mm 239 W/m 7,8 C 19,8 C 3,2 km/h (1 Bft) 99 %
27.03.2022 18:00 19,5 C 19,5 C 19,8 C 46 % 1025,2 hPa 0,0 l/m 0,0 km/h (0 Bft) NO 40 10 min 0,178 mm 211 W/m 7,6 C 19,5 C 1,6 km/h (1 Bft) 99 %
27.03.2022 18:10 19,5 C 19,5 C 19,6 C 46 % 1025,2 hPa 0,0 l/m 0,1 km/h (0 Bft) N 9 10 min 0,000 mm 158 W/m 7,6 C 19,5 C 4,8 km/h (1 Bft) 100 %
27.03.2022 18:20 19,3 C 19,3 C 19,5 C 47 % 1025,1 hPa 0,0 l/m 0,0 km/h (0 Bft) N 9 0 min 0,000 mm 44 W/m 7,7 C 19,3 C 1,6 km/h (1 Bft) 100 %
27.03.2022 18:30 19,1 C 19,1 C 19,3 C 48 % 1025,1 hPa 0,0 l/m 0,0 km/h (0 Bft) N 355 0 min 0,000 mm 40 W/m 7,8 C 19,1 C 1,6 km/h (1 Bft) 100 %
27.03.2022 18:40 18,7 C 18,7 C 19,1 C 49 % 1025,1 hPa 0,0 l/m 0,0 km/h (0 Bft) N-NO 14 0 min 0,000 mm 37 W/m 7,8 C 18,7 C 1,6 km/h (1 Bft) 100 %
27.03.2022 18:50 18,4 C 18,4 C 18,7 C 50 % 1025,1 hPa 0,0 l/m 0,0 km/h (0 Bft) N-NO 14 0 min 0,000 mm 33 W/m 7,8 C 18,4 C 1,6 km/h (1 Bft) 100 %
27.03.2022 19:00 18,0 C 18,0 C 18,4 C 50 % 1025,2 hPa 0,0 l/m 0,0 km/h (0 Bft) N-NO 14 0 min 0,051 mm 28 W/m 7,4 C 18,0 C 0,0 km/h (0 Bft) 100 %
27.03.2022 19:10 17,7 C 17,7 C 18,0 C 52 % 1025,1 hPa 0,0 l/m 0,0 km/h (0 Bft) N-NO 14 0 min 0,000 mm 23 W/m 7,7 C 17,7 C 0,0 km/h (0 Bft) 100 %
27.03.2022 19:20 17,3 C 17,3 C 17,7 C 53 % 1025,1 hPa 0,0 l/m 0,0 km/h (0 Bft) N-NO 14 0 min 0,000 mm 18 W/m 7,6 C 17,3 C 0,0 km/h (0 Bft) 100 %
27.03.2022 19:30 16,8 C 16,8 C 17,3 C 53 % 1025,0 hPa 0,0 l/m 0,0 km/h (0 Bft) N-NO 14 0 min 0,000 mm 12 W/m 7,2 C 16,8 C 0,0 km/h (0 Bft) 100 %
27.03.2022 19:40 16,4 C 16,4 C 16,8 C 54 % 1025,1 hPa 0,0 l/m 0,0 km/h (0 Bft) N-NO 14 0 min 0,000 mm 5 W/m 7,1 C 16,4 C 0,0 km/h (0 Bft) 100 %
27.03.2022 19:50 16,2 C 16,2 C 16,4 C 54 % 1025,1 hPa 0,0 l/m 0,0 km/h (0 Bft) N-NO 14 0 min 0,000 mm 0 W/m 6,9 C 16,2 C 0,0 km/h (0 Bft) 99 %
27.03.2022 20:00 15,7 C 15,7 C 16,2 C 55 % 1025,2 hPa 0,0 l/m 0,0 km/h (0 Bft) N-NO 14 0 min 0,025 mm 0 W/m 6,7 C 15,7 C 0,0 km/h (0 Bft) 100 %
27.03.2022 20:10 15,3 C 15,3 C 15,7 C 56 % 1025,2 hPa 0,0 l/m 0,0 km/h (0 Bft) N-NO 14 0 min 0,000 mm 0 W/m 6,6 C 15,3 C 0,0 km/h (0 Bft) 100 %
27.03.2022 20:20 15,1 C 15,1 C 15,4 C 57 % 1025,2 hPa 0,0 l/m 0,0 km/h (0 Bft) N-NO 14 0 min 0,000 mm 0 W/m 6,6 C 15,1 C 0,0 km/h (0 Bft) 100 %
27.03.2022 20:30 14,8 C 14,8 C 15,1 C 59 % 1025,3 hPa 0,0 l/m 0,0 km/h (0 Bft) N-NO 14 0 min 0,000 mm 0 W/m 6,9 C 14,8 C 0,0 km/h (0 Bft) 99 %
27.03.2022 20:40 14,5 C 14,5 C 14,8 C 60 % 1025,3 hPa 0,0 l/m 0,0 km/h (0 Bft) N-NO 14 0 min 0,000 mm 0 W/m 6,8 C 14,5 C 0,0 km/h (0 Bft) 100 %
27.03.2022 20:50 14,3 C 14,3 C 14,5 C 62 % 1025,4 hPa 0,0 l/m 0,0 km/h (0 Bft) N-NO 14 0 min 0,000 mm 0 W/m 7,1 C 14,3 C 1,6 km/h (1 Bft) 100 %
27.03.2022 21:00 14,2 C 14,2 C 14,3 C 62 % 1025,4 hPa 0,0 l/m 0,0 km/h (0 Bft) N-NO 14 0 min 0,000 mm 0 W/m 7,0 C 14,2 C 0,0 km/h (0 Bft) 100 %
27.03.2022 21:10 13,9 C 13,9 C 14,2 C 63 % 1025,5 hPa 0,0 l/m 0,0 km/h (0 Bft) N 0 0 min 0,000 mm 0 W/m 7,0 C 13,9 C 0,0 km/h (0 Bft) 98 %
27.03.2022 21:20 13,7 C 13,7 C 13,9 C 64 % 1025,5 hPa 0,0 l/m 0,0 km/h (0 Bft) N 0 0 min 0,000 mm 0 W/m 7,0 C 13,7 C 0,0 km/h (0 Bft) 96 %
27.03.2022 21:30 13,4 C 13,4 C 13,7 C 65 % 1025,7 hPa 0,0 l/m 0,0 km/h (0 Bft) N 0 0 min 0,000 mm 0 W/m 7,0 C 13,4 C 0,0 km/h (0 Bft) 97 %
27.03.2022 21:40 13,2 C 13,2 C 13,4 C 65 % 1025,7 hPa 0,0 l/m 0,0 km/h (0 Bft) N 0 0 min 0,000 mm 0 W/m 6,8 C 13,2 C 0,0 km/h (0 Bft) 98 %
27.03.2022 21:50 13,3 C 13,2 C 13,3 C 65 % 1025,7 hPa 0,0 l/m 0,0 km/h (0 Bft) N 0 0 min 0,000 mm 0 W/m 6,9 C 13,3 C 0,0 km/h (0 Bft) 99 %
27.03.2022 22:00 12,6 C 12,6 C 13,3 C 66 % 1025,7 hPa 0,0 l/m 0,0 km/h (0 Bft) N 0 0 min 0,025 mm 0 W/m 6,4 C 12,6 C 0,0 km/h (0 Bft) 100 %
27.03.2022 22:10 11,8 C 11,8 C 12,6 C 69 % 1025,6 hPa 0,0 l/m 0,0 km/h (0 Bft) N 0 0 min 0,000 mm 0 W/m 6,3 C 11,8 C 0,0 km/h (0 Bft) 98 %
27.03.2022 22:20 11,2 C 11,2 C 11,8 C 71 % 1025,7 hPa 0,0 l/m 0,0 km/h (0 Bft) N 0 0 min 0,000 mm 0 W/m 6,1 C 11,2 C 0,0 km/h (0 Bft) 100 %
27.03.2022 22:30 10,8 C 10,8 C 11,2 C 72 % 1025,7 hPa 0,0 l/m 0,0 km/h (0 Bft) N 0 0 min 0,000 mm 0 W/m 6,0 C 10,8 C 0,0 km/h (0 Bft) 100 %
27.03.2022 22:40 10,4 C 10,4 C 10,8 C 73 % 1025,7 hPa 0,0 l/m 0,0 km/h (0 Bft) N 0 0 min 0,000 mm 0 W/m 5,8 C 10,4 C 0,0 km/h (0 Bft) 100 %
27.03.2022 22:50 10,1 C 10,1 C 10,4 C 75 % 1025,7 hPa 0,0 l/m 0,0 km/h (0 Bft) N 0 0 min 0,000 mm 0 W/m 5,9 C 10,1 C 0,0 km/h (0 Bft) 99 %
27.03.2022 23:00 9,8 C 9,8 C 10,1 C 75 % 1025,7 hPa 0,0 l/m 0,0 km/h (0 Bft) N 360 0 min 0,025 mm 0 W/m 5,6 C 9,8 C 4,8 km/h (1 Bft) 95 %
27.03.2022 23:10 9,3 C 9,3 C 9,8 C 76 % 1025,7 hPa 0,0 l/m 0,0 km/h (0 Bft) N 360 0 min 0,000 mm 0 W/m 5,3 C 9,3 C 1,6 km/h (1 Bft) 95 %
27.03.2022 23:20 8,9 C 8,9 C 9,3 C 78 % 1025,8 hPa 0,0 l/m 0,0 km/h (0 Bft) N 0 0 min 0,000 mm 0 W/m 5,3 C 8,9 C 0,0 km/h (0 Bft) 99 %
27.03.2022 23:30 8,5 C 8,5 C 8,9 C 79 % 1025,8 hPa 0,0 l/m 0,0 km/h (0 Bft) N 0 0 min 0,000 mm 0 W/m 5,1 C 8,5 C 0,0 km/h (0 Bft) 100 %
27.03.2022 23:40 8,2 C 8,2 C 8,5 C 80 % 1025,8 hPa 0,0 l/m 0,0 km/h (0 Bft) N 360 0 min 0,000 mm 0 W/m 5,0 C 8,2 C 1,6 km/h (1 Bft) 100 %
27.03.2022 23:50 8,1 C 8,1 C 8,2 C 81 % 1025,7 hPa 0,0 l/m 0,0 km/h (0 Bft) N 0 0 min 0,000 mm 0 W/m 5,0 C 8,1 C 0,0 km/h (0 Bft) 100 %
_ Min-Zeit 07:00 07:00 07:10 15:00 19:30 - 00:10 - - - - - 00:00 07:00 04:30 08:40
Minimum _ 5,9 C 5,9 C 5,9 C 41 % 1025,0 hPa - 0,0 km/h (0 Bft) - - - - - 1,4 C 5,9 C 0,0 km/h (0 Bft) 89 %
_ Max-Zeit 17:10 17:00 17:10 23:50 09:50 00:00 03:20 - - 12:10 13:00 13:10 17:20 17:00 16:00 00:00
Maximum _ 20,7 C 20,4 C 20,7 C 81 % 1028,4 hPa 0,0 l/m 4,8 km/h
N-NO (1 Bft)
- - 20 min 0,356 mm 642 W/m 8,0 C 20,6 C 24,1 km/h
S-SO (4 Bft)
100 %
Durchschnitt _ 12,7 C 12,5 C 12,8 C 61 % 1027,0 hPa #0,0 l/m 1,5 km/h (1 Bft) NO - #9:40 h #2,844 mm 367 W/m 5,0 C 12,7 C 5,7 km/h (1 Bft) 98 %
PRIVATE WETTERSTATION BILLIGHEIM-ALLFELD - www.neckar-odenwald-wetter.de - Holger Sonntag